Time;durP1;ratioP1;P1;durP2;ratioP2;P2;SDS_P1;SDS_P2;PMS_P1;PMS_P2;Temp;Humidity;BMP_temperature;BMP_pressure;BME280_temperature;BME280_humidity;BME280_pressure;Samples;Min_cycle;Max_cycle;Signal;HPM_P1;HPM_P2
2021/09/30 00:02:07;;;;;;;0.00;0.00;;;11.60;73.50;;;;;;5052590;28;20131;-79
2021/09/30 00:04:33;;;;;;;0.00;0.00;;;11.60;73.40;;;;;;5053011;28;20074;-79
2021/09/30 00:06:59;;;;;;;0.00;0.00;;;11.60;73.30;;;;;;5035503;28;20112;-79
2021/09/30 00:09:25;;;;;;;0.00;0.00;;;11.60;73.20;;;;;;5031901;28;20025;-79
2021/09/30 00:11:58;;;;;;;0.00;0.00;;;11.60;73.10;;;;;;5033181;28;20030;-79
2021/09/30 00:14:28;;;;;;;0.00;0.00;;;11.60;72.90;;;;;;5033138;28;20025;-78
2021/09/30 00:17:16;;;;;;;0.00;0.00;;;11.60;72.80;;;;;;5033007;28;20026;-80
2021/09/30 00:49:33;;;;;;;0.00;0.00;;;11.60;72.40;;;;;;5057264;28;20116;-78
2021/09/30 01:46:13;;;;;;;0.00;0.00;;;11.90;69.10;;;;;;5056196;28;20090;-79
2021/09/30 02:24:49;;;;;;;0.00;0.00;;;11.80;69.10;;;;;;5075324;28;20036;-78
2021/09/30 03:00:35;;;;;;;0.00;0.00;;;11.70;69.90;;;;;;5068409;28;20043;-79
2021/09/30 03:03:03;;;;;;;0.00;0.00;;;11.70;70.00;;;;;;5074422;28;20025;-80
2021/09/30 03:05:29;;;;;;;0.00;0.00;;;11.70;70.10;;;;;;5056488;28;20036;-80
2021/09/30 03:07:56;;;;;;;0.00;0.00;;;11.70;70.30;;;;;;5056403;28;20021;-80
2021/09/30 03:10:23;;;;;;;0.00;0.00;;;11.70;70.30;;;;;;5056198;28;20070;-79
2021/09/30 03:12:51;;;;;;;0.00;0.00;;;11.70;70.30;;;;;;5056148;28;20052;-79
2021/09/30 03:23:33;;;;;;;0.00;0.00;;;11.80;70.30;;;;;;5022752;28;20086;-79
2021/09/30 03:26:00;;;;;;;0.00;0.00;;;11.80;70.30;;;;;;5054102;28;20048;-80
2021/09/30 03:28:27;;;;;;;0.00;0.00;;;11.80;70.40;;;;;;5036126;28;20219;-79
2021/09/30 03:30:55;;;;;;;0.00;0.00;;;11.80;70.50;;;;;;5053115;28;20029;-80
2021/09/30 03:33:22;;;;;;;0.00;0.00;;;11.80;70.50;;;;;;5035912;28;20445;-79
2021/09/30 03:35:49;;;;;;;0.00;0.00;;;11.80;70.50;;;;;;5052732;28;20024;-80
2021/09/30 03:38:16;;;;;;;0.00;0.00;;;11.80;70.50;;;;;;5054059;28;20036;-80
2021/09/30 03:40:42;;;;;;;0.00;0.00;;;11.80;70.50;;;;;;5054281;28;20037;-80
2021/09/30 03:43:09;;;;;;;0.00;0.00;;;11.80;70.40;;;;;;5053752;28;20430;-80
2021/09/30 03:45:35;;;;;;;0.00;0.00;;;11.80;70.40;;;;;;5053538;28;20115;-79
2021/09/30 03:48:02;;;;;;;0.00;0.00;;;11.80;70.30;;;;;;5053589;28;20033;-79
2021/09/30 03:50:43;;;;;;;0.00;0.00;;;11.90;70.40;;;;;;5053128;28;20469;-79
2021/09/30 03:53:15;;;;;;;0.00;0.00;;;11.80;70.30;;;;;;5053638;28;20029;-81
2021/09/30 04:01:11;;;;;;;0.00;0.00;;;11.90;70.50;;;;;;5053663;28;20047;-80
2021/09/30 04:03:37;;;;;;;0.00;0.00;;;11.90;70.50;;;;;;5053844;28;20373;-80
2021/09/30 04:06:03;;;;;;;0.00;0.00;;;11.90;70.40;;;;;;5035252;28;20393;-80
2021/09/30 04:08:29;;;;;;;0.10;0.00;;;11.90;70.20;;;;;;5035592;28;20021;-80
2021/09/30 04:10:56;;;;;;;0.00;0.00;;;11.90;70.10;;;;;;5035355;28;20116;-79
2021/09/30 04:13:22;;;;;;;0.00;0.00;;;11.90;70.00;;;;;;5053402;28;20397;-80
2021/09/30 04:15:50;;;;;;;0.00;0.00;;;11.90;69.90;;;;;;5053506;28;20017;-81
2021/09/30 04:18:16;;;;;;;0.00;0.00;;;11.90;69.80;;;;;;5053779;28;20066;-81
2021/09/30 04:20:42;;;;;;;0.00;0.00;;;12.00;69.80;;;;;;5053289;28;20032;-81
2021/09/30 04:23:08;;;;;;;0.00;0.00;;;12.00;69.70;;;;;;5053689;28;20025;-81
2021/09/30 04:25:34;;;;;;;0.00;0.00;;;12.00;69.50;;;;;;5053221;28;20393;-80
2021/09/30 04:28:00;;;;;;;0.00;0.00;;;12.00;69.30;;;;;;5053465;28;20028;-80
2021/09/30 04:30:26;;;;;;;0.20;0.00;;;12.00;69.10;;;;;;5053456;28;20040;-80
2021/09/30 04:32:52;;;;;;;0.00;0.00;;;12.00;69.00;;;;;;5054786;28;20034;-78
2021/09/30 04:35:18;;;;;;;0.00;0.00;;;12.00;69.00;;;;;;5054664;28;20021;-78
2021/09/30 04:37:44;;;;;;;0.00;0.00;;;12.10;68.80;;;;;;5037179;28;20116;-79
2021/09/30 04:40:10;;;;;;;0.00;0.00;;;12.00;68.60;;;;;;5037426;28;20079;-79
2021/09/30 04:42:36;;;;;;;0.00;0.00;;;12.00;68.60;;;;;;5036792;28;20477;-80
2021/09/30 04:45:02;;;;;;;0.00;0.00;;;12.10;68.60;;;;;;5036948;28;20032;-80
2021/09/30 04:47:28;;;;;;;0.00;0.00;;;12.10;68.60;;;;;;5050189;28;20032;-81
2021/09/30 04:49:55;;;;;;;0.00;0.00;;;12.10;68.60;;;;;;5056247;28;20037;-80
2021/09/30 04:52:21;;;;;;;0.00;0.00;;;12.10;68.70;;;;;;5074444;28;20040;-79
2021/09/30 04:54:48;;;;;;;0.00;0.00;;;12.20;68.70;;;;;;5055564;28;20028;-80
2021/09/30 04:57:14;;;;;;;0.00;0.00;;;12.20;68.50;;;;;;5073224;28;20095;-81
2021/09/30 04:59:40;;;;;;;0.03;0.03;;;12.20;68.50;;;;;;5055188;28;20039;-81
2021/09/30 05:02:06;;;;;;;0.00;0.00;;;12.20;68.30;;;;;;5072937;28;20099;-79
2021/09/30 05:04:31;;;;;;;0.00;0.00;;;12.20;68.30;;;;;;5073019;28;20024;-80
2021/09/30 05:06:59;;;;;;;0.00;0.00;;;12.20;68.20;;;;;;5074624;28;20035;-80
2021/09/30 05:09:26;;;;;;;0.00;0.00;;;12.20;67.90;;;;;;5076446;28;20534;-80
2021/09/30 05:11:56;;;;;;;0.47;0.20;;;12.20;67.80;;;;;;5076197;28;20040;-79
2021/09/30 05:14:22;;;;;;;0.00;0.00;;;12.30;67.60;;;;;;5074015;28;20017;-79
2021/09/30 05:16:49;;;;;;;0.00;0.00;;;12.30;67.40;;;;;;5018705;28;20036;-80
2021/09/30 05:19:15;;;;;;;0.00;0.00;;;12.30;67.20;;;;;;5036302;28;20026;-84
2021/09/30 05:21:42;;;;;;;0.00;0.00;;;12.40;66.90;;;;;;5036595;28;20176;-80
2021/09/30 05:24:08;;;;;;;0.00;0.00;;;12.50;66.60;;;;;;5036382;28;20021;-79
2021/09/30 05:26:34;;;;;;;0.00;0.00;;;12.60;66.40;;;;;;5037086;28;20136;-80
2021/09/30 05:29:00;;;;;;;0.00;0.00;;;12.70;66.10;;;;;;5036167;28;20387;-80
2021/09/30 05:31:28;;;;;;;0.00;0.00;;;12.70;65.80;;;;;;5036341;28;20124;-79
2021/09/30 05:33:55;;;;;;;0.00;0.00;;;12.80;65.60;;;;;;5036419;28;20029;-79
2021/09/30 05:36:21;;;;;;;0.00;0.00;;;12.90;65.40;;;;;;5036194;28;20030;-80
2021/09/30 05:38:47;;;;;;;0.00;0.00;;;13.10;65.00;;;;;;5018351;28;20380;-80
2021/09/30 05:41:12;;;;;;;0.00;0.00;;;13.20;64.60;;;;;;5035667;28;20108;-78
2021/09/30 05:43:41;;;;;;;0.00;0.00;;;13.30;64.10;;;;;;5018285;28;20032;-80
2021/09/30 05:46:09;;;;;;;0.00;0.00;;;13.40;63.80;;;;;;5036043;28;20052;-79
2021/09/30 05:48:34;;;;;;;0.00;0.00;;;13.40;63.50;;;;;;5018201;28;20029;-80
2021/09/30 05:51:00;;;;;;;0.00;0.00;;;13.30;63.40;;;;;;5017961;28;20029;-79
2021/09/30 05:53:26;;;;;;;0.00;0.00;;;13.30;63.30;;;;;;5036302;28;20037;-80
2021/09/30 05:55:52;;;;;;;0.00;0.00;;;13.20;63.30;;;;;;5072720;28;20028;-78
2021/09/30 05:58:18;;;;;;;0.00;0.00;;;13.20;63.30;;;;;;5075258;28;20028;-80
2021/09/30 06:01:01;;;;;;;0.00;0.00;;;13.10;63.30;;;;;;5057229;28;20078;-80
2021/09/30 06:12:00;;;;;;;0.00;0.00;;;13.10;63.30;;;;;;5034340;28;20099;-80
2021/09/30 06:14:29;;;;;;;0.00;0.00;;;13.00;64.00;;;;;;5054543;28;20036;-79
2021/09/30 06:17:03;;;;;;;0.00;0.00;;;13.00;63.60;;;;;;5055150;28;20021;-82
2021/09/30 06:19:29;;;;;;;0.00;0.00;;;13.00;63.60;;;;;;5037062;28;20074;-80
2021/09/30 06:21:55;;;;;;;0.00;0.00;;;13.00;63.60;;;;;;5055279;28;20060;-79
2021/09/30 06:24:22;;;;;;;0.00;0.00;;;13.00;63.60;;;;;;5037093;28;20068;-80
2021/09/30 06:26:49;;;;;;;0.00;0.00;;;13.10;63.50;;;;;;5037324;28;20077;-79
2021/09/30 06:29:15;;;;;;;0.00;0.00;;;13.10;63.30;;;;;;5055145;28;20112;-80
2021/09/30 06:31:41;;;;;;;0.00;0.00;;;13.10;63.20;;;;;;5055202;28;20033;-79
2021/09/30 06:34:08;;;;;;;0.10;0.00;;;13.10;63.10;;;;;;5054786;28;20406;-79
2021/09/30 06:36:35;;;;;;;0.00;0.00;;;13.20;63.00;;;;;;5055185;28;20035;-79
2021/09/30 06:39:00;;;;;;;0.00;0.00;;;13.20;62.70;;;;;;5039996;28;20457;-79
2021/09/30 06:41:26;;;;;;;0.00;0.00;;;13.20;62.60;;;;;;5034750;28;20091;-80
2021/09/30 06:43:52;;;;;;;0.10;0.10;;;13.20;62.40;;;;;;5034598;28;20025;-80
2021/09/30 06:46:18;;;;;;;0.00;0.00;;;13.30;62.20;;;;;;5034937;28;20477;-80
2021/09/30 06:48:44;;;;;;;0.00;0.00;;;13.30;62.10;;;;;;5034857;28;20428;-80
2021/09/30 06:51:10;;;;;;;0.00;0.00;;;13.40;62.00;;;;;;5017042;28;20476;-80
2021/09/30 06:53:35;;;;;;;0.00;0.00;;;13.40;62.00;;;;;;5034521;28;20067;-80
2021/09/30 06:56:05;;;;;;;0.00;0.00;;;13.50;61.90;;;;;;5034384;28;20075;-80
2021/09/30 06:58:31;;;;;;;0.00;0.00;;;13.50;61.90;;;;;;5033507;28;20040;-81
2021/09/30 07:00:57;;;;;;;0.00;0.00;;;13.60;61.60;;;;;;5035209;28;20057;-80
2021/09/30 07:03:24;;;;;;;0.00;0.00;;;13.70;61.40;;;;;;5035066;28;20025;-80
2021/09/30 07:05:50;;;;;;;0.00;0.00;;;13.80;61.10;;;;;;5034165;28;20025;-80
2021/09/30 07:08:16;;;;;;;0.00;0.00;;;13.90;60.90;;;;;;5034385;28;20030;-80
2021/09/30 07:10:42;;;;;;;0.00;0.00;;;14.00;60.70;;;;;;5034157;28;20394;-80
2021/09/30 07:13:08;;;;;;;0.13;0.13;;;14.20;60.60;;;;;;5016281;28;20092;-81
2021/09/30 07:15:34;;;;;;;0.00;0.00;;;14.30;60.40;;;;;;5016730;28;20072;-80
2021/09/30 07:18:12;;;;;;;0.75;0.00;;;14.40;59.80;;;;;;5017030;28;20033;-84
2021/09/30 07:20:38;;;;;;;0.00;0.00;;;14.60;59.30;;;;;;5018168;28;20029;-79
2021/09/30 07:23:04;;;;;;;0.00;0.00;;;14.70;59.30;;;;;;5034921;28;20022;-80
2021/09/30 07:25:31;;;;;;;0.00;0.00;;;14.90;59.00;;;;;;5034244;28;20064;-79
2021/09/30 07:27:57;;;;;;;0.00;0.00;;;15.10;58.40;;;;;;5055363;28;20032;-80
2021/09/30 07:30:25;;;;;;;0.00;0.00;;;15.20;58.00;;;;;;5037606;28;20346;-79
2021/09/30 07:32:50;;;;;;;0.00;0.00;;;15.40;57.60;;;;;;5057436;28;20037;-81
2021/09/30 07:35:16;;;;;;;0.00;0.00;;;15.50;57.20;;;;;;5056549;28;20446;-81
2021/09/30 07:37:42;;;;;;;0.00;0.00;;;15.70;56.90;;;;;;5037492;28;20043;-78
2021/09/30 07:40:08;;;;;;;0.00;0.00;;;15.90;56.50;;;;;;5038915;28;20033;-79
2021/09/30 07:42:34;;;;;;;0.00;0.00;;;16.10;56.00;;;;;;5056869;28;20033;-80
2021/09/30 07:44:59;;;;;;;0.00;0.00;;;16.30;55.50;;;;;;5038402;28;20051;-79
2021/09/30 07:47:27;;;;;;;0.00;0.00;;;16.50;54.90;;;;;;5055020;28;20045;-80
2021/09/30 07:49:52;;;;;;;0.00;0.00;;;16.60;54.50;;;;;;5036158;28;20128;-81
2021/09/30 07:52:18;;;;;;;0.00;0.00;;;16.70;54.10;;;;;;5035856;28;20523;-81
2021/09/30 07:54:45;;;;;;;0.00;0.00;;;17.00;53.70;;;;;;5053922;28;20064;-82
2021/09/30 07:57:11;;;;;;;0.00;0.00;;;17.20;53.10;;;;;;5053699;28;20362;-79
2021/09/30 07:59:38;;;;;;;0.05;0.00;;;17.50;52.60;;;;;;5053346;28;20064;-82
2021/09/30 08:02:04;;;;;;;0.00;0.00;;;17.80;52.30;;;;;;5053346;28;20037;-81
2021/09/30 08:04:29;;;;;;;0.00;0.00;;;18.20;51.90;;;;;;5053365;28;20028;-80
2021/09/30 08:06:55;;;;;;;0.00;0.00;;;18.60;51.20;;;;;;5035656;28;20056;-80
2021/09/30 08:09:21;;;;;;;0.00;0.00;;;19.30;50.60;;;;;;5054126;28;20458;-80
2021/09/30 08:11:47;;;;;;;0.00;0.00;;;20.00;49.20;;;;;;5061765;28;20115;-80
2021/09/30 08:14:13;;;;;;;0.00;0.00;;;20.90;47.80;;;;;;5050429;28;20056;-80
2021/09/30 08:16:39;;;;;;;0.00;0.00;;;21.80;45.90;;;;;;5065835;28;20456;-80
2021/09/30 08:19:06;;;;;;;0.10;0.00;;;22.80;44.60;;;;;;5073135;28;20037;-80
2021/09/30 08:21:32;;;;;;;0.00;0.00;;;23.60;43.60;;;;;;5055406;28;20032;-80
2021/09/30 08:23:58;;;;;;;0.00;0.00;;;24.30;42.00;;;;;;5073602;28;20063;-79
2021/09/30 08:26:24;;;;;;;0.00;0.00;;;25.10;40.70;;;;;;5073339;28;20090;-80
2021/09/30 08:28:53;;;;;;;0.00;0.00;;;25.80;39.70;;;;;;5072937;28;20028;-80
2021/09/30 08:31:21;;;;;;;0.00;0.00;;;26.40;38.70;;;;;;5071311;28;20032;-81
2021/09/30 08:33:48;;;;;;;0.00;0.00;;;27.10;38.50;;;;;;5035388;28;20035;-81
2021/09/30 08:36:15;;;;;;;0.00;0.00;;;27.60;38.10;;;;;;5035297;28;20036;-80
2021/09/30 08:38:42;;;;;;;0.00;0.00;;;28.10;37.70;;;;;;5061852;28;20034;-80
2021/09/30 08:41:08;;;;;;;0.00;0.00;;;28.70;36.90;;;;;;5055469;28;20151;-81
2021/09/30 08:43:34;;;;;;;0.00;0.00;;;29.20;36.20;;;;;;5059139;28;20056;-80
2021/09/30 08:46:00;;;;;;;0.00;0.00;;;29.50;35.60;;;;;;5076775;28;20111;-80
2021/09/30 08:48:26;;;;;;;0.00;0.00;;;29.90;35.00;;;;;;5075768;28;20028;-81
2021/09/30 08:50:53;;;;;;;0.00;0.00;;;30.20;34.60;;;;;;5056026;28;20465;-80
2021/09/30 08:53:19;;;;;;;0.00;0.00;;;30.60;34.20;;;;;;5040920;28;20095;-80
2021/09/30 08:55:45;;;;;;;0.00;0.00;;;31.10;33.70;;;;;;5060305;28;20065;-80
2021/09/30 08:58:11;;;;;;;0.00;0.00;;;31.40;33.20;;;;;;5076717;28;20074;-80
2021/09/30 09:00:40;;;;;;;0.00;0.00;;;31.80;32.70;;;;;;5076915;28;20029;-80
2021/09/30 09:03:06;;;;;;;0.00;0.00;;;32.10;32.20;;;;;;5076408;28;20028;-80
2021/09/30 09:05:35;;;;;;;0.00;0.00;;;32.10;31.90;;;;;;5058515;28;20020;-81
2021/09/30 09:08:03;;;;;;;0.00;0.00;;;32.30;31.70;;;;;;5052828;28;20108;-80
2021/09/30 09:10:32;;;;;;;0.00;0.00;;;32.40;31.40;;;;;;5027527;28;20071;-80
2021/09/30 09:13:16;;;;;;;0.00;0.00;;;32.60;31.20;;;;;;5046939;28;20492;-80
2021/09/30 09:15:47;;;;;;;0.00;0.00;;;32.90;31.00;;;;;;5026121;28;20461;-82
2021/09/30 09:18:21;;;;;;;0.00;0.00;;;33.40;31.10;;;;;;5051931;28;20029;-81
2021/09/30 09:20:59;;;;;;;0.00;0.00;;;33.80;30.80;;;;;;5046621;28;20380;-80
2021/09/30 09:23:25;;;;;;;0.00;0.00;;;34.00;30.50;;;;;;5047010;28;20066;-80
2021/09/30 09:26:13;;;;;;;0.00;0.00;;;34.30;30.40;;;;;;5053832;28;20045;-81
2021/09/30 09:29:01;;;;;;;0.00;0.00;;;34.60;29.80;;;;;;5033713;28;20066;-81
2021/09/30 09:31:30;;;;;;;0.00;0.00;;;34.90;29.80;;;;;;5047615;28;20112;-79
2021/09/30 09:33:56;;;;;;;0.00;0.00;;;35.20;29.70;;;;;;5038150;28;20030;-82
2021/09/30 09:36:26;;;;;;;0.00;0.00;;;35.50;29.50;;;;;;5043118;28;20056;-81
2021/09/30 09:38:56;;;;;;;0.00;0.00;;;35.70;29.20;;;;;;5043145;28;20021;-80
2021/09/30 09:41:29;;;;;;;0.00;0.00;;;36.00;29.00;;;;;;5052477;28;20082;-81
2021/09/30 09:43:57;;;;;;;0.00;0.00;;;36.00;28.70;;;;;;5035213;28;20468;-80
2021/09/30 09:46:28;;;;;;;0.00;0.00;;;36.10;29.30;;;;;;5056086;28;20043;-80
2021/09/30 09:49:03;;;;;;;0.00;0.00;;;36.30;28.70;;;;;;5037870;28;20171;-80
2021/09/30 09:51:38;;;;;;;0.00;0.00;;;36.70;28.80;;;;;;5055545;28;20021;-80
2021/09/30 09:54:10;;;;;;;0.00;0.00;;;36.80;28.60;;;;;;5055149;28;20029;-80
2021/09/30 09:56:36;;;;;;;0.00;0.00;;;37.00;28.60;;;;;;5038131;28;20033;-80
2021/09/30 09:59:02;;;;;;;0.00;0.00;;;37.10;29.30;;;;;;5055989;28;20052;-80
2021/09/30 10:01:47;;;;;;;0.00;0.00;;;37.30;28.70;;;;;;5021093;28;20029;-80
2021/09/30 10:04:13;;;;;;;0.00;0.00;;;37.40;28.20;;;;;;5055601;28;20021;-81
2021/09/30 10:06:40;;;;;;;0.00;0.00;;;37.50;28.30;;;;;;5056353;28;20032;-79
2021/09/30 10:09:08;;;;;;;0.00;0.00;;;37.60;28.10;;;;;;5055658;28;20366;-80
2021/09/30 10:11:35;;;;;;;0.00;0.00;;;37.70;28.00;;;;;;5055626;28;20029;-80
2021/09/30 10:14:04;;;;;;;0.00;0.00;;;37.90;28.00;;;;;;5037275;28;20047;-80
2021/09/30 10:16:31;;;;;;;0.00;0.00;;;38.10;27.90;;;;;;5037850;28;20372;-79
2021/09/30 10:18:59;;;;;;;0.00;0.00;;;38.20;27.90;;;;;;5055472;28;20029;-81
2021/09/30 10:21:27;;;;;;;0.00;0.00;;;38.40;27.60;;;;;;5038306;28;20424;-79
2021/09/30 10:23:57;;;;;;;0.00;0.00;;;38.40;27.40;;;;;;5055317;28;20052;-79
2021/09/30 10:26:49;;;;;;;0.00;0.00;;;38.10;27.70;;;;;;5054068;28;20053;-80
2021/09/30 10:29:33;;;;;;;0.00;0.00;;;37.90;27.20;;;;;;5054170;28;20040;-80
2021/09/30 10:31:59;;;;;;;0.00;0.00;;;37.80;27.20;;;;;;5037561;28;20546;-80
2021/09/30 10:34:34;;;;;;;0.00;0.00;;;37.80;27.50;;;;;;5055518;28;20033;-81
2021/09/30 10:37:26;;;;;;;0.00;0.00;;;38.00;27.30;;;;;;5055248;28;20021;-80
2021/09/30 10:40:10;;;;;;;0.00;0.00;;;38.30;27.20;;;;;;5055027;28;20469;-79
2021/09/30 10:42:58;;;;;;;0.00;0.00;;;38.60;27.20;;;;;;5055810;28;20445;-80
2021/09/30 10:45:40;;;;;;;0.00;0.00;;;38.90;27.00;;;;;;5048737;28;20029;-81
2021/09/30 10:48:26;;;;;;;0.05;0.05;;;38.90;26.90;;;;;;5045938;28;20107;-81
2021/09/30 10:50:56;;;;;;;0.00;0.00;;;38.90;26.80;;;;;;5045263;28;20457;-79
2021/09/30 10:53:44;;;;;;;0.00;0.00;;;39.00;26.80;;;;;;5042495;28;20030;-80
2021/09/30 10:56:29;;;;;;;0.00;0.00;;;39.00;26.70;;;;;;5047060;28;20048;-81
2021/09/30 10:59:21;;;;;;;0.00;0.00;;;39.10;26.70;;;;;;5048299;28;20025;-81
2021/09/30 11:01:52;;;;;;;0.00;0.00;;;39.30;26.90;;;;;;5031201;28;20040;-80
2021/09/30 11:04:18;;;;;;;0.00;0.00;;;39.60;27.00;;;;;;5048420;28;20021;-82
2021/09/30 11:07:05;;;;;;;0.00;0.00;;;39.60;26.80;;;;;;5045957;28;20075;-82
2021/09/30 11:09:31;;;;;;;0.00;0.00;;;39.50;26.70;;;;;;5044327;28;20025;-81
2021/09/30 11:12:12;;;;;;;0.00;0.00;;;39.60;26.80;;;;;;5042218;28;20024;-81
2021/09/30 11:14:57;;;;;;;0.00;0.00;;;39.70;26.50;;;;;;5038882;28;20037;-82
2021/09/30 11:17:34;;;;;;;0.10;0.10;;;39.80;26.40;;;;;;5034082;28;20033;-81
2021/09/30 11:20:29;;;;;;;0.00;0.00;;;40.00;26.30;;;;;;5034069;28;20125;-81
2021/09/30 11:22:55;;;;;;;0.00;0.00;;;40.20;26.30;;;;;;5029776;28;20033;-80
2021/09/30 11:25:21;;;;;;;0.00;0.00;;;40.30;26.40;;;;;;5015996;28;20057;-80
2021/09/30 11:28:06;;;;;;;0.00;0.00;;;40.20;26.30;;;;;;5035271;28;20040;-83
2021/09/30 11:30:32;;;;;;;0.00;0.00;;;40.10;26.20;;;;;;5021782;28;20059;-81
2021/09/30 11:32:59;;;;;;;0.00;0.00;;;40.20;26.10;;;;;;5054281;28;20025;-82
2021/09/30 11:35:25;;;;;;;0.00;0.00;;;40.20;26.10;;;;;;5038751;28;20033;-80
2021/09/30 11:37:51;;;;;;;0.00;0.00;;;40.20;26.10;;;;;;5033785;28;20026;-82
2021/09/30 11:40:18;;;;;;;0.00;0.00;;;40.20;26.10;;;;;;5034027;28;20056;-82
2021/09/30 11:42:50;;;;;;;0.00;0.00;;;40.20;26.10;;;;;;5033830;28;20058;-80
2021/09/30 11:45:21;;;;;;;0.00;0.00;;;40.10;26.50;;;;;;5033392;28;20082;-81
2021/09/30 11:47:48;;;;;;;0.00;0.00;;;39.80;26.00;;;;;;5016543;28;20036;-81
2021/09/30 11:50:22;;;;;;;0.00;0.00;;;39.80;26.00;;;;;;5015937;28;20032;-80
2021/09/30 11:53:04;;;;;;;0.00;0.00;;;39.80;25.90;;;;;;5018075;28;20462;-81
2021/09/30 11:55:33;;;;;;;0.00;0.00;;;40.00;26.00;;;;;;5053684;28;20025;-80
2021/09/30 11:58:02;;;;;;;0.00;0.00;;;40.10;25.90;;;;;;5053101;28;20491;-80
2021/09/30 12:00:29;;;;;;;0.10;0.10;;;40.00;25.90;;;;;;5035536;28;20040;-80
2021/09/30 12:03:06;;;;;;;0.00;0.00;;;39.90;26.00;;;;;;5053156;28;20028;-80
2021/09/30 12:05:35;;;;;;;0.00;0.00;;;39.70;26.00;;;;;;5053554;28;20025;-80
2021/09/30 12:08:03;;;;;;;0.00;0.00;;;39.70;26.00;;;;;;5035700;28;20025;-81
2021/09/30 12:10:30;;;;;;;0.00;0.00;;;39.80;26.00;;;;;;5035494;28;20147;-80
2021/09/30 12:12:56;;;;;;;0.00;0.00;;;39.80;25.90;;;;;;5053352;28;20429;-80
2021/09/30 12:15:23;;;;;;;0.00;0.00;;;39.80;25.90;;;;;;5053403;28;20480;-80
2021/09/30 12:17:48;;;;;;;0.00;0.00;;;39.80;25.90;;;;;;5038682;28;20071;-80
2021/09/30 12:20:16;;;;;;;0.00;0.00;;;39.80;25.90;;;;;;5057369;28;20473;-80
2021/09/30 12:22:48;;;;;;;0.00;0.00;;;39.80;25.80;;;;;;5057270;28;20025;-79
2021/09/30 12:25:25;;;;;;;0.00;0.00;;;39.60;25.80;;;;;;5039110;28;20531;-80
2021/09/30 12:27:54;;;;;;;0.00;0.00;;;39.30;25.70;;;;;;5039305;28;20033;-80
2021/09/30 12:30:24;;;;;;;0.00;0.00;;;39.10;25.80;;;;;;5057404;28;20024;-82
2021/09/30 12:32:53;;;;;;;0.00;0.00;;;39.00;25.90;;;;;;5041672;28;20037;-81
2021/09/30 12:35:26;;;;;;;0.00;0.00;;;38.90;26.50;;;;;;5056823;28;20025;-82
2021/09/30 12:37:54;;;;;;;0.00;0.00;;;38.90;26.00;;;;;;5076896;28;20453;-82
2021/09/30 12:40:35;;;;;;;0.00;0.00;;;39.00;26.10;;;;;;5075388;28;20031;-82
2021/09/30 12:43:13;;;;;;;0.00;0.00;;;39.10;25.80;;;;;;5039818;28;20074;-81
2021/09/30 12:45:43;;;;;;;0.00;0.00;;;39.20;25.80;;;;;;5062012;28;20037;-81
2021/09/30 12:48:10;;;;;;;0.00;0.00;;;39.20;25.70;;;;;;5058912;28;20029;-82
2021/09/30 12:50:50;;;;;;;0.00;0.00;;;39.20;25.70;;;;;;5063968;28;20053;-81
2021/09/30 12:53:19;;;;;;;0.00;0.00;;;39.30;25.80;;;;;;5055615;28;20029;-82
2021/09/30 12:55:46;;;;;;;0.00;0.00;;;39.20;25.70;;;;;;5056121;28;20021;-81
2021/09/30 12:58:30;;;;;;;0.00;0.00;;;39.20;25.80;;;;;;5057157;28;20033;-81
2021/09/30 13:00:58;;;;;;;0.00;0.00;;;39.20;25.60;;;;;;5061389;28;20040;-81
2021/09/30 13:03:25;;;;;;;0.00;0.00;;;38.90;25.60;;;;;;5076743;28;20060;-82
2021/09/30 13:05:53;;;;;;;0.00;0.00;;;38.70;25.70;;;;;;5076867;28;20024;-81
2021/09/30 13:08:42;;;;;;;0.00;0.00;;;38.60;25.70;;;;;;5058673;28;20035;-80
2021/09/30 13:11:25;;;;;;;0.00;0.00;;;38.40;25.70;;;;;;5076277;28;20040;-82
2021/09/30 13:14:17;;;;;;;0.10;0.00;;;38.30;25.80;;;;;;5077045;28;20118;-81
2021/09/30 13:16:45;;;;;;;0.00;0.00;;;38.10;25.70;;;;;;5075922;28;20108;-82
2021/09/30 13:19:11;;;;;;;0.00;0.00;;;37.80;25.80;;;;;;5075085;28;20036;-81
2021/09/30 13:21:58;;;;;;;0.00;0.00;;;37.60;25.80;;;;;;5058861;28;20033;-81
2021/09/30 13:24:25;;;;;;;0.00;0.00;;;37.40;25.90;;;;;;5075973;28;20021;-82
2021/09/30 13:26:50;;;;;;;0.00;0.00;;;37.20;25.90;;;;;;5076378;28;20036;-81
2021/09/30 13:29:16;;;;;;;0.00;0.00;;;37.10;26.10;;;;;;5076170;28;20381;-81
2021/09/30 13:31:43;;;;;;;0.00;0.00;;;37.10;26.20;;;;;;5076578;28;20029;-82
2021/09/30 13:34:09;;;;;;;0.00;0.00;;;37.10;26.10;;;;;;5077272;28;20039;-80
2021/09/30 13:36:34;;;;;;;0.00;0.00;;;37.20;26.10;;;;;;5077116;28;20381;-79
2021/09/30 13:39:00;;;;;;;0.00;0.00;;;37.10;26.10;;;;;;5077473;28;20470;-80
2021/09/30 13:41:26;;;;;;;0.00;0.00;;;37.20;26.10;;;;;;5042066;28;20038;-80
2021/09/30 13:43:58;;;;;;;0.00;0.00;;;37.10;26.10;;;;;;5048468;28;20031;-80
2021/09/30 13:46:25;;;;;;;0.00;0.00;;;37.10;26.20;;;;;;5045787;28;20338;-80
2021/09/30 13:48:51;;;;;;;0.00;0.00;;;37.00;26.10;;;;;;5050925;28;20048;-81
2021/09/30 13:51:17;;;;;;;0.00;0.00;;;36.90;26.10;;;;;;5026963;28;20025;-81
2021/09/30 13:53:42;;;;;;;0.00;0.00;;;36.70;26.00;;;;;;5048205;28;20025;-82
2021/09/30 13:56:08;;;;;;;0.00;0.00;;;36.50;26.10;;;;;;5045947;28;20021;-81
2021/09/30 13:58:35;;;;;;;0.00;0.00;;;36.30;26.20;;;;;;5046679;28;20362;-82
2021/09/30 14:01:02;;;;;;;0.00;0.00;;;36.20;26.30;;;;;;5043401;28;20154;-83
2021/09/30 14:03:28;;;;;;;0.00;0.00;;;36.10;26.30;;;;;;5046796;28;20033;-81
2021/09/30 14:05:53;;;;;;;0.00;0.00;;;36.00;26.30;;;;;;5047443;28;20507;-81
2021/09/30 14:08:20;;;;;;;0.00;0.00;;;35.80;26.40;;;;;;5043691;28;20025;-80
2021/09/30 14:10:47;;;;;;;0.00;0.00;;;35.70;26.40;;;;;;5044331;28;20469;-82
2021/09/30 14:13:16;;;;;;;0.00;0.00;;;35.50;26.40;;;;;;5045566;28;20029;-81
2021/09/30 14:15:43;;;;;;;0.00;0.00;;;35.20;26.40;;;;;;5043447;28;20048;-81
2021/09/30 14:18:10;;;;;;;0.00;0.00;;;35.00;26.50;;;;;;5045819;28;20029;-82
2021/09/30 14:20:37;;;;;;;0.00;0.00;;;34.80;26.50;;;;;;5043254;28;20629;-81
2021/09/30 14:23:04;;;;;;;0.00;0.00;;;34.30;26.60;;;;;;5037560;28;20032;-81
2021/09/30 14:25:30;;;;;;;0.00;0.00;;;34.00;26.70;;;;;;5055068;28;20052;-80
2021/09/30 14:27:56;;;;;;;0.00;0.00;;;33.70;26.90;;;;;;5037038;28;20036;-80
2021/09/30 14:30:22;;;;;;;0.00;0.00;;;33.40;26.90;;;;;;5054525;28;20032;-80
2021/09/30 14:32:51;;;;;;;0.00;0.00;;;33.00;26.90;;;;;;5054421;28;20358;-81
2021/09/30 14:41:24;;;;;;;0.00;0.00;;;31.90;27.40;;;;;;5052789;28;20053;-82
2021/09/30 14:43:50;;;;;;;0.00;0.00;;;31.40;27.50;;;;;;5054682;28;20049;-83
2021/09/30 14:46:18;;;;;;;0.00;0.00;;;31.00;27.70;;;;;;5042599;28;20061;-82
2021/09/30 14:48:44;;;;;;;0.00;0.00;;;30.60;27.80;;;;;;5046569;28;20025;-81
2021/09/30 14:51:11;;;;;;;0.00;0.00;;;30.20;27.80;;;;;;5026175;28;20070;-82
2021/09/30 14:53:38;;;;;;;0.00;0.00;;;29.80;28.00;;;;;;5028448;28;20036;-83
2021/09/30 14:56:06;;;;;;;0.00;0.00;;;29.40;28.00;;;;;;5041507;28;20025;-83
2021/09/30 14:58:33;;;;;;;0.00;0.00;;;29.00;28.20;;;;;;5022554;28;20025;-81
2021/09/30 15:00:59;;;;;;;0.00;0.00;;;28.60;28.40;;;;;;5023600;28;20107;-82
2021/09/30 15:03:25;;;;;;;0.00;0.00;;;28.20;28.70;;;;;;5025287;28;20037;-85
2021/09/30 15:05:51;;;;;;;0.00;0.00;;;27.80;28.80;;;;;;5047505;28;20464;-81
2021/09/30 15:08:17;;;;;;;0.00;0.00;;;27.50;29.10;;;;;;5029947;28;20041;-81
2021/09/30 15:10:42;;;;;;;0.00;0.00;;;27.10;29.30;;;;;;5046849;28;20036;-83
2021/09/30 15:13:08;;;;;;;0.00;0.00;;;26.60;29.40;;;;;;5047385;28;20483;-81
2021/09/30 15:15:35;;;;;;;0.00;0.00;;;26.30;29.80;;;;;;5051531;28;20351;-81
2021/09/30 15:18:21;;;;;;;0.00;0.00;;;25.80;29.90;;;;;;5023073;28;20029;-81
2021/09/30 15:23:31;;;;;;;0.00;0.00;;;24.90;30.70;;;;;;5040863;28;20048;-80
2021/09/30 15:25:57;;;;;;;0.00;0.00;;;24.30;31.30;;;;;;5034697;28;20046;-81
2021/09/30 15:28:25;;;;;;;0.00;0.00;;;23.70;32.10;;;;;;5023363;28;20030;-82
2021/09/30 15:30:54;;;;;;;0.00;0.00;;;23.00;33.00;;;;;;5029966;28;20099;-81
2021/09/30 15:33:20;;;;;;;0.00;0.00;;;22.30;34.10;;;;;;5022466;28;20371;-83
2021/09/30 15:35:46;;;;;;;0.00;0.00;;;21.60;34.90;;;;;;5025132;28;20025;-81
2021/09/30 15:38:12;;;;;;;0.00;0.00;;;21.00;36.00;;;;;;5022076;28;20100;-81
2021/09/30 15:40:38;;;;;;;0.00;0.00;;;20.40;36.80;;;;;;5022278;28;20037;-80
2021/09/30 15:43:04;;;;;;;0.00;0.00;;;20.00;38.10;;;;;;5024306;28;20025;-81
2021/09/30 15:45:31;;;;;;;0.00;0.00;;;19.60;39.10;;;;;;5025374;28;20143;-80
2021/09/30 15:47:57;;;;;;;0.00;0.00;;;19.20;39.80;;;;;;5019405;28;20053;-81
2021/09/30 15:50:24;;;;;;;0.00;0.00;;;18.90;40.30;;;;;;5012191;28;20107;-81
2021/09/30 15:52:50;;;;;;;0.00;0.00;;;18.50;41.10;;;;;;5013132;28;20076;-79
2021/09/30 15:55:16;;;;;;;0.00;0.00;;;18.20;42.00;;;;;;5013535;28;20025;-81
2021/09/30 15:57:42;;;;;;;0.00;0.00;;;18.00;43.20;;;;;;5013322;28;20026;-80
2021/09/30 16:00:09;;;;;;;0.00;0.00;;;17.70;43.50;;;;;;5023682;28;20041;-80
2021/09/30 16:02:35;;;;;;;0.00;0.00;;;17.50;44.10;;;;;;5036494;28;20107;-80